sensor_id;sensor_type;location;lat;lon;timestamp;P1;durP1;ratioP1;P2;durP2;ratioP2
22476;SDS011;11405;51.698;-0.292;2022-09-09T00:01:41;14.27;;;2.80;;
22476;SDS011;11405;51.698;-0.292;2022-09-09T00:04:52;11.63;;;2.50;;
22476;SDS011;11405;51.698;-0.292;2022-09-09T00:09:33;10.35;;;2.58;;
22476;SDS011;11405;51.698;-0.292;2022-09-09T00:12:10;11.98;;;2.70;;
22476;SDS011;11405;51.698;-0.292;2022-09-09T00:14:40;19.88;;;2.95;;
22476;SDS011;11405;51.698;-0.292;2022-09-09T00:17:09;11.02;;;2.35;;
22476;SDS011;11405;51.698;-0.292;2022-09-09T00:19:46;6.93;;;2.40;;
22476;SDS011;11405;51.698;-0.292;2022-09-09T00:22:33;14.93;;;2.90;;
22476;SDS011;11405;51.698;-0.292;2022-09-09T00:25:14;19.48;;;3.25;;
22476;SDS011;11405;51.698;-0.292;2022-09-09T00:32:36;14.38;;;2.80;;
22476;SDS011;11405;51.698;-0.292;2022-09-09T00:35:09;14.23;;;3.47;;
22476;SDS011;11405;51.698;-0.292;2022-09-09T00:37:37;12.57;;;3.00;;
22476;SDS011;11405;51.698;-0.292;2022-09-09T00:40:18;13.05;;;2.85;;
22476;SDS011;11405;51.698;-0.292;2022-09-09T00:42:47;20.48;;;3.20;;
22476;SDS011;11405;51.698;-0.292;2022-09-09T00:47:49;23.73;;;3.60;;
22476;SDS011;11405;51.698;-0.292;2022-09-09T00:55:48;17.42;;;3.03;;
22476;SDS011;11405;51.698;-0.292;2022-09-09T00:58:14;12.27;;;2.95;;
22476;SDS011;11405;51.698;-0.292;2022-09-09T01:10:41;29.27;;;3.85;;
22476;SDS011;11405;51.698;-0.292;2022-09-09T01:13:30;11.30;;;2.90;;
22476;SDS011;11405;51.698;-0.292;2022-09-09T01:15:59;9.98;;;2.58;;
22476;SDS011;11405;51.698;-0.292;2022-09-09T01:18:26;13.60;;;3.08;;
22476;SDS011;11405;51.698;-0.292;2022-09-09T01:23:38;11.90;;;2.80;;
22476;SDS011;11405;51.698;-0.292;2022-09-09T01:28:39;17.33;;;2.75;;
22476;SDS011;11405;51.698;-0.292;2022-09-09T01:31:06;12.77;;;2.67;;
22476;SDS011;11405;51.698;-0.292;2022-09-09T01:33:32;16.60;;;3.08;;
22476;SDS011;11405;51.698;-0.292;2022-09-09T01:38:25;11.98;;;2.95;;
22476;SDS011;11405;51.698;-0.292;2022-09-09T01:40:52;11.18;;;2.53;;
22476;SDS011;11405;51.698;-0.292;2022-09-09T01:43:21;13.68;;;2.80;;
22476;SDS011;11405;51.698;-0.292;2022-09-09T01:45:48;14.55;;;2.53;;
22476;SDS011;11405;51.698;-0.292;2022-09-09T01:48:16;8.35;;;2.35;;
22476;SDS011;11405;51.698;-0.292;2022-09-09T01:50:43;12.23;;;3.03;;
22476;SDS011;11405;51.698;-0.292;2022-09-09T01:53:09;11.52;;;2.95;;
22476;SDS011;11405;51.698;-0.292;2022-09-09T01:55:40;10.85;;;2.95;;
22476;SDS011;11405;51.698;-0.292;2022-09-09T02:00:32;18.63;;;3.30;;
22476;SDS011;11405;51.698;-0.292;2022-09-09T02:03:43;7.38;;;3.08;;
22476;SDS011;11405;51.698;-0.292;2022-09-09T02:05:55;20.65;;;3.30;;
22476;SDS011;11405;51.698;-0.292;2022-09-09T02:08:25;14.38;;;3.28;;
22476;SDS011;11405;51.698;-0.292;2022-09-09T02:10:56;8.73;;;2.95;;
22476;SDS011;11405;51.698;-0.292;2022-09-09T02:13:24;18.10;;;3.10;;
22476;SDS011;11405;51.698;-0.292;2022-09-09T02:18:18;9.00;;;2.75;;
22476;SDS011;11405;51.698;-0.292;2022-09-09T02:20:45;14.40;;;3.35;;
22476;SDS011;11405;51.698;-0.292;2022-09-09T02:23:12;9.27;;;3.10;;
22476;SDS011;11405;51.698;-0.292;2022-09-09T02:25:38;13.95;;;3.72;;
22476;SDS011;11405;51.698;-0.292;2022-09-09T02:28:06;16.55;;;3.22;;
22476;SDS011;11405;51.698;-0.292;2022-09-09T02:30:32;18.15;;;3.10;;
22476;SDS011;11405;51.698;-0.292;2022-09-09T02:35:26;9.38;;;3.10;;
22476;SDS011;11405;51.698;-0.292;2022-09-09T02:40:19;12.40;;;3.88;;
22476;SDS011;11405;51.698;-0.292;2022-09-09T02:42:47;14.68;;;3.45;;
22476;SDS011;11405;51.698;-0.292;2022-09-09T02:45:15;18.35;;;4.35;;
22476;SDS011;11405;51.698;-0.292;2022-09-09T02:50:29;13.73;;;3.72;;
22476;SDS011;11405;51.698;-0.292;2022-09-09T02:53:04;15.23;;;3.17;;
22476;SDS011;11405;51.698;-0.292;2022-09-09T02:58:05;24.27;;;4.68;;
22476;SDS011;11405;51.698;-0.292;2022-09-09T03:00:33;23.30;;;4.47;;
22476;SDS011;11405;51.698;-0.292;2022-09-09T03:03:02;21.33;;;4.53;;
22476;SDS011;11405;51.698;-0.292;2022-09-09T03:05:28;19.88;;;3.67;;
22476;SDS011;11405;51.698;-0.292;2022-09-09T03:07:54;13.10;;;4.15;;
22476;SDS011;11405;51.698;-0.292;2022-09-09T03:10:20;16.15;;;4.55;;
22476;SDS011;11405;51.698;-0.292;2022-09-09T03:12:46;16.75;;;3.88;;
22476;SDS011;11405;51.698;-0.292;2022-09-09T03:15:12;17.55;;;3.90;;
22476;SDS011;11405;51.698;-0.292;2022-09-09T03:17:39;15.95;;;4.13;;
22476;SDS011;11405;51.698;-0.292;2022-09-09T03:20:06;27.02;;;4.03;;
22476;SDS011;11405;51.698;-0.292;2022-09-09T03:22:33;17.90;;;4.22;;
22476;SDS011;11405;51.698;-0.292;2022-09-09T03:24:59;18.55;;;3.97;;
22476;SDS011;11405;51.698;-0.292;2022-09-09T03:27:25;17.48;;;4.45;;
22476;SDS011;11405;51.698;-0.292;2022-09-09T03:29:51;13.85;;;3.50;;
22476;SDS011;11405;51.698;-0.292;2022-09-09T03:32:17;12.13;;;2.90;;
22476;SDS011;11405;51.698;-0.292;2022-09-09T03:34:43;26.80;;;3.22;;
22476;SDS011;11405;51.698;-0.292;2022-09-09T03:37:09;22.08;;;3.35;;
22476;SDS011;11405;51.698;-0.292;2022-09-09T03:39:35;13.63;;;3.25;;
22476;SDS011;11405;51.698;-0.292;2022-09-09T03:42:01;8.60;;;2.80;;
22476;SDS011;11405;51.698;-0.292;2022-09-09T03:44:31;8.15;;;2.65;;
22476;SDS011;11405;51.698;-0.292;2022-09-09T03:49:25;7.35;;;2.00;;
22476;SDS011;11405;51.698;-0.292;2022-09-09T03:51:53;11.45;;;2.17;;
22476;SDS011;11405;51.698;-0.292;2022-09-09T03:54:19;9.40;;;2.72;;
22476;SDS011;11405;51.698;-0.292;2022-09-09T03:56:45;11.82;;;2.70;;
22476;SDS011;11405;51.698;-0.292;2022-09-09T03:59:11;11.60;;;2.33;;
22476;SDS011;11405;51.698;-0.292;2022-09-09T04:01:39;7.63;;;2.40;;
22476;SDS011;11405;51.698;-0.292;2022-09-09T04:04:05;15.85;;;2.55;;
22476;SDS011;11405;51.698;-0.292;2022-09-09T04:06:32;14.57;;;3.13;;
22476;SDS011;11405;51.698;-0.292;2022-09-09T04:08:59;10.85;;;4.10;;
22476;SDS011;11405;51.698;-0.292;2022-09-09T04:11:27;9.77;;;3.47;;
22476;SDS011;11405;51.698;-0.292;2022-09-09T04:13:53;14.35;;;3.30;;
22476;SDS011;11405;51.698;-0.292;2022-09-09T04:16:19;16.92;;;4.57;;
22476;SDS011;11405;51.698;-0.292;2022-09-09T04:18:45;13.38;;;4.45;;
22476;SDS011;11405;51.698;-0.292;2022-09-09T04:21:11;8.90;;;3.30;;
22476;SDS011;11405;51.698;-0.292;2022-09-09T04:23:37;14.20;;;4.72;;
22476;SDS011;11405;51.698;-0.292;2022-09-09T04:26:04;14.73;;;4.60;;
22476;SDS011;11405;51.698;-0.292;2022-09-09T04:28:32;16.25;;;4.60;;
22476;SDS011;11405;51.698;-0.292;2022-09-09T04:31:09;20.73;;;5.18;;
22476;SDS011;11405;51.698;-0.292;2022-09-09T04:33:36;14.43;;;5.00;;
22476;SDS011;11405;51.698;-0.292;2022-09-09T04:36:04;18.33;;;6.03;;
22476;SDS011;11405;51.698;-0.292;2022-09-09T04:38:30;18.23;;;5.75;;
22476;SDS011;11405;51.698;-0.292;2022-09-09T04:40:56;11.00;;;4.35;;
22476;SDS011;11405;51.698;-0.292;2022-09-09T04:43:23;15.63;;;6.00;;
22476;SDS011;11405;51.698;-0.292;2022-09-09T04:45:51;20.77;;;5.95;;
22476;SDS011;11405;51.698;-0.292;2022-09-09T04:48:17;17.98;;;6.10;;
22476;SDS011;11405;51.698;-0.292;2022-09-09T04:50:43;18.08;;;6.13;;
22476;SDS011;11405;51.698;-0.292;2022-09-09T04:53:09;15.10;;;6.70;;
22476;SDS011;11405;51.698;-0.292;2022-09-09T04:55:35;17.90;;;7.00;;
22476;SDS011;11405;51.698;-0.292;2022-09-09T04:58:05;19.55;;;6.78;;
22476;SDS011;11405;51.698;-0.292;2022-09-09T05:00:31;22.58;;;7.10;;
22476;SDS011;11405;51.698;-0.292;2022-09-09T05:03:01;20.92;;;8.25;;
22476;SDS011;11405;51.698;-0.292;2022-09-09T05:05:28;19.90;;;6.78;;
22476;SDS011;11405;51.698;-0.292;2022-09-09T05:07:54;29.77;;;8.35;;
22476;SDS011;11405;51.698;-0.292;2022-09-09T05:10:20;25.52;;;7.90;;
22476;SDS011;11405;51.698;-0.292;2022-09-09T05:12:52;24.10;;;8.87;;
22476;SDS011;11405;51.698;-0.292;2022-09-09T05:15:19;25.92;;;9.18;;
22476;SDS011;11405;51.698;-0.292;2022-09-09T05:17:46;26.23;;;10.23;;
22476;SDS011;11405;51.698;-0.292;2022-09-09T05:20:12;26.08;;;9.02;;
22476;SDS011;11405;51.698;-0.292;2022-09-09T05:22:38;31.63;;;10.40;;
22476;SDS011;11405;51.698;-0.292;2022-09-09T05:25:05;20.95;;;8.93;;
22476;SDS011;11405;51.698;-0.292;2022-09-09T05:27:33;21.40;;;9.13;;
22476;SDS011;11405;51.698;-0.292;2022-09-09T05:29:59;20.52;;;7.72;;
22476;SDS011;11405;51.698;-0.292;2022-09-09T05:32:25;25.23;;;8.63;;
22476;SDS011;11405;51.698;-0.292;2022-09-09T05:34:51;24.10;;;7.90;;
22476;SDS011;11405;51.698;-0.292;2022-09-09T05:37:17;21.60;;;8.10;;
22476;SDS011;11405;51.698;-0.292;2022-09-09T05:39:43;18.75;;;7.97;;
22476;SDS011;11405;51.698;-0.292;2022-09-09T05:42:09;19.55;;;7.90;;
22476;SDS011;11405;51.698;-0.292;2022-09-09T05:44:35;17.02;;;6.38;;
22476;SDS011;11405;51.698;-0.292;2022-09-09T05:47:02;16.95;;;6.50;;
22476;SDS011;11405;51.698;-0.292;2022-09-09T05:49:28;20.45;;;6.03;;
22476;SDS011;11405;51.698;-0.292;2022-09-09T05:51:54;18.92;;;6.22;;
22476;SDS011;11405;51.698;-0.292;2022-09-09T05:54:20;20.33;;;5.78;;
22476;SDS011;11405;51.698;-0.292;2022-09-09T05:56:46;15.75;;;5.63;;
22476;SDS011;11405;51.698;-0.292;2022-09-09T05:59:15;13.25;;;5.93;;
22476;SDS011;11405;51.698;-0.292;2022-09-09T06:01:41;10.80;;;6.05;;
22476;SDS011;11405;51.698;-0.292;2022-09-09T06:04:07;12.45;;;5.55;;
22476;SDS011;11405;51.698;-0.292;2022-09-09T06:06:37;17.48;;;5.38;;
22476;SDS011;11405;51.698;-0.292;2022-09-09T06:09:05;18.55;;;5.25;;
22476;SDS011;11405;51.698;-0.292;2022-09-09T06:11:38;13.50;;;5.28;;
22476;SDS011;11405;51.698;-0.292;2022-09-09T06:14:05;11.13;;;5.32;;
22476;SDS011;11405;51.698;-0.292;2022-09-09T06:16:31;14.27;;;5.53;;
22476;SDS011;11405;51.698;-0.292;2022-09-09T06:18:58;19.55;;;6.10;;
22476;SDS011;11405;51.698;-0.292;2022-09-09T06:23:50;14.60;;;4.90;;
22476;SDS011;11405;51.698;-0.292;2022-09-09T06:26:19;13.63;;;5.40;;
22476;SDS011;11405;51.698;-0.292;2022-09-09T06:28:45;21.02;;;5.82;;
22476;SDS011;11405;51.698;-0.292;2022-09-09T06:31:12;14.52;;;4.40;;
22476;SDS011;11405;51.698;-0.292;2022-09-09T06:33:40;13.63;;;5.07;;
22476;SDS011;11405;51.698;-0.292;2022-09-09T06:36:13;15.48;;;5.22;;
22476;SDS011;11405;51.698;-0.292;2022-09-09T06:38:40;17.45;;;5.60;;
22476;SDS011;11405;51.698;-0.292;2022-09-09T06:41:06;11.52;;;5.35;;
22476;SDS011;11405;51.698;-0.292;2022-09-09T06:43:32;14.25;;;5.45;;
22476;SDS011;11405;51.698;-0.292;2022-09-09T06:46:01;12.77;;;5.03;;
22476;SDS011;11405;51.698;-0.292;2022-09-09T06:48:27;11.65;;;5.50;;
22476;SDS011;11405;51.698;-0.292;2022-09-09T06:51:03;17.15;;;6.10;;
22476;SDS011;11405;51.698;-0.292;2022-09-09T06:53:30;14.05;;;5.10;;
22476;SDS011;11405;51.698;-0.292;2022-09-09T06:55:58;15.80;;;5.07;;
22476;SDS011;11405;51.698;-0.292;2022-09-09T06:58:25;15.40;;;5.60;;
22476;SDS011;11405;51.698;-0.292;2022-09-09T07:00:50;18.23;;;4.93;;
22476;SDS011;11405;51.698;-0.292;2022-09-09T07:03:17;17.88;;;4.85;;
22476;SDS011;11405;51.698;-0.292;2022-09-09T07:05:44;15.73;;;5.60;;
22476;SDS011;11405;51.698;-0.292;2022-09-09T07:08:18;15.30;;;4.88;;
22476;SDS011;11405;51.698;-0.292;2022-09-09T07:10:45;17.40;;;5.13;;
22476;SDS011;11405;51.698;-0.292;2022-09-09T07:15:40;14.88;;;4.78;;
22476;SDS011;11405;51.698;-0.292;2022-09-09T07:18:06;13.70;;;4.97;;
22476;SDS011;11405;51.698;-0.292;2022-09-09T07:20:34;8.52;;;4.50;;
22476;SDS011;11405;51.698;-0.292;2022-09-09T07:23:00;12.77;;;5.00;;
22476;SDS011;11405;51.698;-0.292;2022-09-09T07:25:26;17.65;;;5.30;;
22476;SDS011;11405;51.698;-0.292;2022-09-09T07:27:54;12.68;;;4.70;;
22476;SDS011;11405;51.698;-0.292;2022-09-09T07:32:47;11.52;;;4.43;;
22476;SDS011;11405;51.698;-0.292;2022-09-09T07:35:13;12.57;;;5.25;;
22476;SDS011;11405;51.698;-0.292;2022-09-09T07:37:39;10.18;;;4.10;;
22476;SDS011;11405;51.698;-0.292;2022-09-09T07:40:06;10.00;;;5.07;;
22476;SDS011;11405;51.698;-0.292;2022-09-09T07:42:32;20.95;;;5.03;;
22476;SDS011;11405;51.698;-0.292;2022-09-09T07:44:58;11.30;;;4.82;;
22476;SDS011;11405;51.698;-0.292;2022-09-09T07:47:24;12.48;;;4.65;;
22476;SDS011;11405;51.698;-0.292;2022-09-09T07:49:50;12.63;;;5.50;;
22476;SDS011;11405;51.698;-0.292;2022-09-09T07:52:16;10.52;;;5.03;;
22476;SDS011;11405;51.698;-0.292;2022-09-09T07:54:43;8.70;;;5.00;;
22476;SDS011;11405;51.698;-0.292;2022-09-09T07:57:10;9.27;;;5.18;;
22476;SDS011;11405;51.698;-0.292;2022-09-09T07:59:37;9.80;;;5.18;;
22476;SDS011;11405;51.698;-0.292;2022-09-09T08:02:03;9.30;;;4.00;;
22476;SDS011;11405;51.698;-0.292;2022-09-09T08:04:29;11.38;;;5.25;;
22476;SDS011;11405;51.698;-0.292;2022-09-09T08:06:56;9.02;;;4.35;;
22476;SDS011;11405;51.698;-0.292;2022-09-09T08:09:22;11.60;;;4.95;;
22476;SDS011;11405;51.698;-0.292;2022-09-09T08:11:53;8.10;;;4.43;;
22476;SDS011;11405;51.698;-0.292;2022-09-09T08:14:21;12.55;;;4.22;;
22476;SDS011;11405;51.698;-0.292;2022-09-09T08:16:48;7.18;;;4.22;;
22476;SDS011;11405;51.698;-0.292;2022-09-09T08:19:15;10.60;;;4.63;;
22476;SDS011;11405;51.698;-0.292;2022-09-09T08:21:42;10.95;;;4.13;;
22476;SDS011;11405;51.698;-0.292;2022-09-09T08:26:36;9.25;;;3.97;;
22476;SDS011;11405;51.698;-0.292;2022-09-09T08:29:03;10.63;;;4.13;;
22476;SDS011;11405;51.698;-0.292;2022-09-09T08:31:33;14.55;;;4.68;;
22476;SDS011;11405;51.698;-0.292;2022-09-09T08:34:00;12.02;;;5.22;;
22476;SDS011;11405;51.698;-0.292;2022-09-09T08:36:29;10.77;;;4.25;;
22476;SDS011;11405;51.698;-0.292;2022-09-09T08:38:56;12.95;;;4.60;;
22476;SDS011;11405;51.698;-0.292;2022-09-09T08:51:41;11.88;;;4.88;;
22476;SDS011;11405;51.698;-0.292;2022-09-09T08:54:07;12.57;;;5.28;;
22476;SDS011;11405;51.698;-0.292;2022-09-09T08:56:35;11.48;;;4.60;;
22476;SDS011;11405;51.698;-0.292;2022-09-09T08:59:03;9.80;;;5.10;;
22476;SDS011;11405;51.698;-0.292;2022-09-09T09:07:03;12.13;;;5.38;;
22476;SDS011;11405;51.698;-0.292;2022-09-09T09:12:21;13.73;;;5.85;;
22476;SDS011;11405;51.698;-0.292;2022-09-09T09:14:49;12.18;;;6.38;;
22476;SDS011;11405;51.698;-0.292;2022-09-09T09:17:18;12.48;;;5.50;;
22476;SDS011;11405;51.698;-0.292;2022-09-09T09:19:46;11.02;;;5.20;;
22476;SDS011;11405;51.698;-0.292;2022-09-09T09:22:22;11.48;;;5.35;;
22476;SDS011;11405;51.698;-0.292;2022-09-09T09:29:48;12.35;;;6.32;;
22476;SDS011;11405;51.698;-0.292;2022-09-09T09:32:18;26.98;;;12.27;;
22476;SDS011;11405;51.698;-0.292;2022-09-09T09:34:53;21.08;;;10.63;;
22476;SDS011;11405;51.698;-0.292;2022-09-09T09:37:31;20.00;;;8.70;;
22476;SDS011;11405;51.698;-0.292;2022-09-09T09:40:09;18.50;;;9.23;;
22476;SDS011;11405;51.698;-0.292;2022-09-09T09:42:35;13.98;;;7.72;;
22476;SDS011;11405;51.698;-0.292;2022-09-09T09:45:14;13.85;;;7.43;;
22476;SDS011;11405;51.698;-0.292;2022-09-09T09:47:43;11.82;;;6.72;;
22476;SDS011;11405;51.698;-0.292;2022-09-09T09:50:16;16.65;;;6.65;;
22476;SDS011;11405;51.698;-0.292;2022-09-09T09:52:52;14.02;;;7.30;;
22476;SDS011;11405;51.698;-0.292;2022-09-09T09:55:19;12.52;;;6.50;;
22476;SDS011;11405;51.698;-0.292;2022-09-09T09:57:45;10.73;;;6.15;;
22476;SDS011;11405;51.698;-0.292;2022-09-09T10:00:12;8.98;;;5.25;;
22476;SDS011;11405;51.698;-0.292;2022-09-09T10:02:40;15.95;;;6.65;;
22476;SDS011;11405;51.698;-0.292;2022-09-09T10:05:24;13.93;;;6.43;;
22476;SDS011;11405;51.698;-0.292;2022-09-09T10:08:11;9.50;;;5.93;;
22476;SDS011;11405;51.698;-0.292;2022-09-09T10:10:52;12.10;;;6.72;;
22476;SDS011;11405;51.698;-0.292;2022-09-09T10:18:58;13.13;;;7.55;;
22476;SDS011;11405;51.698;-0.292;2022-09-09T10:26:48;12.88;;;6.80;;
22476;SDS011;11405;51.698;-0.292;2022-09-09T10:36:49;12.10;;;5.68;;
22476;SDS011;11405;51.698;-0.292;2022-09-09T10:44:33;6.57;;;4.18;;
22476;SDS011;11405;51.698;-0.292;2022-09-09T10:52:28;8.80;;;5.20;;
22476;SDS011;11405;51.698;-0.292;2022-09-09T10:55:01;11.13;;;4.97;;
22476;SDS011;11405;51.698;-0.292;2022-09-09T10:57:31;13.23;;;5.00;;
22476;SDS011;11405;51.698;-0.292;2022-09-09T11:00:02;13.55;;;5.65;;
22476;SDS011;11405;51.698;-0.292;2022-09-09T11:02:30;9.57;;;5.82;;
22476;SDS011;11405;51.698;-0.292;2022-09-09T11:07:42;12.45;;;6.35;;
22476;SDS011;11405;51.698;-0.292;2022-09-09T11:10:19;12.20;;;6.03;;
22476;SDS011;11405;51.698;-0.292;2022-09-09T11:12:49;13.15;;;6.38;;
22476;SDS011;11405;51.698;-0.292;2022-09-09T11:15:18;15.13;;;7.43;;
22476;SDS011;11405;51.698;-0.292;2022-09-09T11:17:50;13.88;;;6.63;;
22476;SDS011;11405;51.698;-0.292;2022-09-09T11:20:19;18.77;;;8.15;;
22476;SDS011;11405;51.698;-0.292;2022-09-09T11:22:47;17.70;;;7.25;;
22476;SDS011;11405;51.698;-0.292;2022-09-09T11:25:15;17.42;;;7.80;;
22476;SDS011;11405;51.698;-0.292;2022-09-09T11:27:50;17.38;;;7.43;;
22476;SDS011;11405;51.698;-0.292;2022-09-09T11:30:19;15.98;;;7.05;;
22476;SDS011;11405;51.698;-0.292;2022-09-09T11:33:04;15.30;;;7.30;;
22476;SDS011;11405;51.698;-0.292;2022-09-09T11:40:42;9.82;;;6.32;;
22476;SDS011;11405;51.698;-0.292;2022-09-09T11:43:10;13.15;;;6.88;;
22476;SDS011;11405;51.698;-0.292;2022-09-09T11:45:37;16.67;;;7.05;;
22476;SDS011;11405;51.698;-0.292;2022-09-09T11:48:04;15.02;;;6.47;;
22476;SDS011;11405;51.698;-0.292;2022-09-09T11:50:34;14.23;;;6.90;;
22476;SDS011;11405;51.698;-0.292;2022-09-09T11:55:39;12.23;;;7.28;;
22476;SDS011;11405;51.698;-0.292;2022-09-09T11:58:05;17.33;;;7.32;;
22476;SDS011;11405;51.698;-0.292;2022-09-09T12:03:02;12.20;;;5.70;;
22476;SDS011;11405;51.698;-0.292;2022-09-09T12:05:39;7.75;;;5.20;;
22476;SDS011;11405;51.698;-0.292;2022-09-09T12:10:33;12.52;;;6.38;;
22476;SDS011;11405;51.698;-0.292;2022-09-09T12:13:34;11.73;;;6.45;;
22476;SDS011;11405;51.698;-0.292;2022-09-09T12:15:57;9.30;;;5.68;;
22476;SDS011;11405;51.698;-0.292;2022-09-09T12:18:38;10.43;;;5.65;;
22476;SDS011;11405;51.698;-0.292;2022-09-09T12:21:21;8.13;;;4.97;;
22476;SDS011;11405;51.698;-0.292;2022-09-09T12:33:53;7.05;;;4.05;;
22476;SDS011;11405;51.698;-0.292;2022-09-09T12:36:22;8.13;;;4.40;;
22476;SDS011;11405;51.698;-0.292;2022-09-09T12:38:50;8.07;;;4.07;;
22476;SDS011;11405;51.698;-0.292;2022-09-09T12:41:26;8.75;;;4.07;;
22476;SDS011;11405;51.698;-0.292;2022-09-09T12:44:06;7.88;;;3.75;;
22476;SDS011;11405;51.698;-0.292;2022-09-09T12:46:34;10.48;;;4.10;;
22476;SDS011;11405;51.698;-0.292;2022-09-09T12:49:02;6.70;;;3.95;;
22476;SDS011;11405;51.698;-0.292;2022-09-09T12:51:30;6.82;;;3.95;;
22476;SDS011;11405;51.698;-0.292;2022-09-09T12:53:56;6.32;;;3.92;;
22476;SDS011;11405;51.698;-0.292;2022-09-09T12:56:23;4.55;;;3.20;;
22476;SDS011;11405;51.698;-0.292;2022-09-09T12:58:52;5.15;;;3.22;;
22476;SDS011;11405;51.698;-0.292;2022-09-09T13:01:25;7.57;;;3.88;;
22476;SDS011;11405;51.698;-0.292;2022-09-09T13:03:51;6.15;;;2.90;;
22476;SDS011;11405;51.698;-0.292;2022-09-09T13:06:19;5.07;;;3.08;;
22476;SDS011;11405;51.698;-0.292;2022-09-09T13:08:47;7.50;;;3.17;;
22476;SDS011;11405;51.698;-0.292;2022-09-09T13:11:14;5.43;;;2.50;;
22476;SDS011;11405;51.698;-0.292;2022-09-09T13:13:42;4.30;;;2.95;;
22476;SDS011;11405;51.698;-0.292;2022-09-09T13:18:35;4.90;;;2.40;;
22476;SDS011;11405;51.698;-0.292;2022-09-09T13:21:03;5.55;;;2.50;;
22476;SDS011;11405;51.698;-0.292;2022-09-09T13:23:30;4.82;;;2.63;;
22476;SDS011;11405;51.698;-0.292;2022-09-09T13:25:58;3.03;;;2.17;;
22476;SDS011;11405;51.698;-0.292;2022-09-09T13:28:25;4.07;;;2.30;;
22476;SDS011;11405;51.698;-0.292;2022-09-09T13:30:59;3.38;;;2.00;;
22476;SDS011;11405;51.698;-0.292;2022-09-09T13:33:38;5.10;;;2.33;;
22476;SDS011;11405;51.698;-0.292;2022-09-09T13:36:06;4.35;;;2.05;;
22476;SDS011;11405;51.698;-0.292;2022-09-09T13:38:33;1.63;;;1.30;;
22476;SDS011;11405;51.698;-0.292;2022-09-09T13:41:05;2.90;;;1.70;;
22476;SDS011;11405;51.698;-0.292;2022-09-09T13:43:34;4.13;;;1.17;;
22476;SDS011;11405;51.698;-0.292;2022-09-09T13:46:03;5.75;;;1.50;;
22476;SDS011;11405;51.698;-0.292;2022-09-09T13:48:29;2.80;;;1.55;;
22476;SDS011;11405;51.698;-0.292;2022-09-09T13:50:57;1.65;;;1.25;;
22476;SDS011;11405;51.698;-0.292;2022-09-09T13:53:23;5.10;;;1.25;;
22476;SDS011;11405;51.698;-0.292;2022-09-09T13:55:49;2.13;;;1.20;;
22476;SDS011;11405;51.698;-0.292;2022-09-09T13:58:16;1.55;;;1.00;;
22476;SDS011;11405;51.698;-0.292;2022-09-09T14:00:44;1.38;;;0.88;;
22476;SDS011;11405;51.698;-0.292;2022-09-09T14:03:10;3.63;;;1.13;;
22476;SDS011;11405;51.698;-0.292;2022-09-09T14:08:05;1.40;;;0.90;;
22476;SDS011;11405;51.698;-0.292;2022-09-09T14:10:31;3.67;;;1.08;;
22476;SDS011;11405;51.698;-0.292;2022-09-09T14:12:57;1.30;;;1.02;;
22476;SDS011;11405;51.698;-0.292;2022-09-09T14:15:23;1.88;;;1.02;;
22476;SDS011;11405;51.698;-0.292;2022-09-09T14:17:49;1.60;;;0.90;;
22476;SDS011;11405;51.698;-0.292;2022-09-09T14:20:17;3.00;;;1.02;;
22476;SDS011;11405;51.698;-0.292;2022-09-09T14:22:44;2.97;;;1.00;;
22476;SDS011;11405;51.698;-0.292;2022-09-09T14:25:10;2.40;;;1.05;;
22476;SDS011;11405;51.698;-0.292;2022-09-09T14:27:38;4.57;;;1.17;;
22476;SDS011;11405;51.698;-0.292;2022-09-09T14:30:04;4.72;;;1.40;;
22476;SDS011;11405;51.698;-0.292;2022-09-09T14:32:30;3.40;;;1.45;;
22476;SDS011;11405;51.698;-0.292;2022-09-09T14:34:56;3.13;;;1.30;;
22476;SDS011;11405;51.698;-0.292;2022-09-09T14:37:22;2.05;;;1.25;;
22476;SDS011;11405;51.698;-0.292;2022-09-09T14:39:49;3.47;;;1.15;;
22476;SDS011;11405;51.698;-0.292;2022-09-09T14:42:15;4.45;;;1.90;;
22476;SDS011;11405;51.698;-0.292;2022-09-09T14:44:41;3.22;;;1.48;;
22476;SDS011;11405;51.698;-0.292;2022-09-09T14:47:08;5.95;;;2.58;;
22476;SDS011;11405;51.698;-0.292;2022-09-09T14:49:34;4.68;;;2.10;;
22476;SDS011;11405;51.698;-0.292;2022-09-09T14:54:26;2.90;;;1.70;;
22476;SDS011;11405;51.698;-0.292;2022-09-09T14:56:53;2.20;;;1.42;;
22476;SDS011;11405;51.698;-0.292;2022-09-09T14:59:19;3.65;;;1.55;;
22476;SDS011;11405;51.698;-0.292;2022-09-09T15:01:45;7.55;;;1.70;;
22476;SDS011;11405;51.698;-0.292;2022-09-09T15:04:12;4.65;;;1.85;;
22476;SDS011;11405;51.698;-0.292;2022-09-09T15:06:39;5.40;;;1.88;;
22476;SDS011;11405;51.698;-0.292;2022-09-09T15:09:07;3.55;;;1.77;;
22476;SDS011;11405;51.698;-0.292;2022-09-09T15:11:34;1.80;;;1.08;;
22476;SDS011;11405;51.698;-0.292;2022-09-09T15:14:04;5.18;;;1.40;;
22476;SDS011;11405;51.698;-0.292;2022-09-09T15:18:57;2.00;;;1.15;;
22476;SDS011;11405;51.698;-0.292;2022-09-09T15:21:25;5.03;;;1.30;;
22476;SDS011;11405;51.698;-0.292;2022-09-09T15:23:52;2.75;;;1.60;;
22476;SDS011;11405;51.698;-0.292;2022-09-09T15:26:18;2.97;;;1.25;;
22476;SDS011;11405;51.698;-0.292;2022-09-09T15:28:45;3.35;;;1.30;;
22476;SDS011;11405;51.698;-0.292;2022-09-09T15:31:13;2.92;;;1.17;;
22476;SDS011;11405;51.698;-0.292;2022-09-09T15:33:40;2.88;;;1.30;;
22476;SDS011;11405;51.698;-0.292;2022-09-09T15:36:22;2.60;;;1.15;;
22476;SDS011;11405;51.698;-0.292;2022-09-09T15:38:49;3.65;;;1.02;;
22476;SDS011;11405;51.698;-0.292;2022-09-09T15:41:15;7.30;;;1.17;;
22476;SDS011;11405;51.698;-0.292;2022-09-09T15:48:45;2.70;;;1.30;;
22476;SDS011;11405;51.698;-0.292;2022-09-09T15:51:13;3.78;;;1.35;;
22476;SDS011;11405;51.698;-0.292;2022-09-09T15:53:39;4.95;;;1.40;;
22476;SDS011;11405;51.698;-0.292;2022-09-09T15:56:06;2.42;;;0.90;;
22476;SDS011;11405;51.698;-0.292;2022-09-09T15:58:32;1.80;;;1.33;;
22476;SDS011;11405;51.698;-0.292;2022-09-09T16:01:05;2.33;;;1.15;;
22476;SDS011;11405;51.698;-0.292;2022-09-09T16:03:35;2.55;;;1.25;;
22476;SDS011;11405;51.698;-0.292;2022-09-09T16:06:02;3.05;;;0.70;;
22476;SDS011;11405;51.698;-0.292;2022-09-09T16:08:36;5.55;;;0.73;;
22476;SDS011;11405;51.698;-0.292;2022-09-09T16:11:09;1.27;;;0.70;;
22476;SDS011;11405;51.698;-0.292;2022-09-09T16:13:36;3.72;;;0.90;;
22476;SDS011;11405;51.698;-0.292;2022-09-09T16:16:03;1.02;;;0.70;;
22476;SDS011;11405;51.698;-0.292;2022-09-09T16:18:35;2.40;;;0.80;;
22476;SDS011;11405;51.698;-0.292;2022-09-09T16:21:02;3.80;;;1.00;;
22476;SDS011;11405;51.698;-0.292;2022-09-09T16:23:30;6.45;;;1.42;;
22476;SDS011;11405;51.698;-0.292;2022-09-09T16:25:56;7.93;;;1.48;;
22476;SDS011;11405;51.698;-0.292;2022-09-09T16:28:22;4.68;;;1.20;;
22476;SDS011;11405;51.698;-0.292;2022-09-09T16:30:48;5.78;;;0.90;;
22476;SDS011;11405;51.698;-0.292;2022-09-09T16:33:15;3.60;;;0.77;;
22476;SDS011;11405;51.698;-0.292;2022-09-09T16:35:41;0.60;;;0.60;;
22476;SDS011;11405;51.698;-0.292;2022-09-09T16:38:07;7.35;;;1.02;;
22476;SDS011;11405;51.698;-0.292;2022-09-09T16:40:34;3.90;;;1.13;;
22476;SDS011;11405;51.698;-0.292;2022-09-09T16:43:00;4.25;;;1.25;;
22476;SDS011;11405;51.698;-0.292;2022-09-09T16:45:26;2.97;;;1.08;;
22476;SDS011;11405;51.698;-0.292;2022-09-09T16:47:52;3.72;;;1.00;;
22476;SDS011;11405;51.698;-0.292;2022-09-09T16:50:19;4.13;;;0.90;;
22476;SDS011;11405;51.698;-0.292;2022-09-09T16:52:45;4.88;;;1.55;;
22476;SDS011;11405;51.698;-0.292;2022-09-09T16:55:11;2.67;;;1.35;;
22476;SDS011;11405;51.698;-0.292;2022-09-09T16:57:37;7.10;;;1.35;;
22476;SDS011;11405;51.698;-0.292;2022-09-09T17:00:03;3.28;;;1.15;;
22476;SDS011;11405;51.698;-0.292;2022-09-09T17:02:32;4.72;;;2.13;;
22476;SDS011;11405;51.698;-0.292;2022-09-09T17:04:58;4.13;;;1.83;;
22476;SDS011;11405;51.698;-0.292;2022-09-09T17:07:24;2.20;;;1.00;;